Time,TemperatureF,DewpointF,PressureIn,WindDirection,WindDirectionDegrees,WindSpeedMPH,WindSpeedGustMPH,Humidity,HourlyPrecipIn,Conditions,Clouds,dailyrainin,SolarRadiationWatts/m^2,SoftwareType,DateUTC
2013-01-08 00:17:00,63.4,61.0,30.14,NNE,17,0.0,2.0,90,0.00,,,0.00,0,weatherlink.com 1.10,2013-01-08 05:17:00,
2013-01-08 00:32:00,63.4,61.0,30.14,NNE,14,0.0,1.0,90,0.00,,,0.00,0,weatherlink.com 1.10,2013-01-08 05:32:00,
2013-01-08 00:47:00,63.4,61.0,30.14,North,5,1.0,4.0,91,0.00,,,0.00,0,weatherlink.com 1.10,2013-01-08 05:47:00,
2013-01-08 01:02:00,63.5,61.0,30.14,North,5,1.0,3.0,91,0.00,,,0.00,0,weatherlink.com 1.10,2013-01-08 06:02:00,
2013-01-08 01:17:00,63.5,61.0,30.14,North,10,0.0,4.0,91,0.00,,,0.00,0,weatherlink.com 1.10,2013-01-08 06:17:00,
2013-01-08 01:32:00,63.5,61.0,30.14,North,10,0.0,2.0,91,0.00,,,0.00,0,weatherlink.com 1.10,2013-01-08 06:32:00,
2013-01-08 01:47:00,63.7,61.0,30.13,North,10,0.0,3.0,91,0.00,,,0.00,0,weatherlink.com 1.10,2013-01-08 06:47:00,
2013-01-08 02:02:00,63.9,62.0,30.13,North,10,0.0,2.0,92,0.00,,,0.00,0,weatherlink.com 1.10,2013-01-08 07:02:00,
2013-01-08 02:17:00,64.1,62.0,30.13,NNE,18,2.0,4.0,92,0.00,,,0.00,0,weatherlink.com 1.10,2013-01-08 07:17:00,
2013-01-08 02:32:00,64.2,62.0,30.13,NNE,18,0.0,3.0,92,0.00,,,0.00,0,weatherlink.com 1.10,2013-01-08 07:32:00,
2013-01-08 02:47:00,64.4,62.0,30.12,NNE,18,0.0,4.0,92,0.00,,,0.00,0,weatherlink.com 1.10,2013-01-08 07:47:00,
2013-01-08 03:02:00,64.5,62.0,30.12,NNE,19,1.0,3.0,92,0.00,,,0.00,0,weatherlink.com 1.10,2013-01-08 08:02:00,
2013-01-08 03:17:00,64.6,62.0,30.12,NNE,13,0.0,3.0,91,0.00,,,0.00,0,weatherlink.com 1.10,2013-01-08 08:17:00,
2013-01-08 03:32:00,64.6,62.0,30.12,North,11,0.0,2.0,92,0.00,,,0.00,0,weatherlink.com 1.10,2013-01-08 08:32:00,
2013-01-08 03:47:00,64.6,62.0,30.12,North,355,0.0,2.0,92,0.00,,,0.00,0,weatherlink.com 1.10,2013-01-08 08:47:00,
2013-01-08 04:02:00,64.6,62.0,30.12,North,351,0.0,3.0,92,0.00,,,0.00,0,weatherlink.com 1.10,2013-01-08 09:02:00,
2013-01-08 04:17:00,64.8,63.0,30.12,North,355,0.0,2.0,92,0.00,,,0.00,0,weatherlink.com 1.10,2013-01-08 09:17:00,
2013-01-08 04:32:00,64.9,63.0,30.12,North,355,0.0,3.0,92,0.00,,,0.00,0,weatherlink.com 1.10,2013-01-08 09:32:00,
2013-01-08 04:47:00,64.8,63.0,30.11,North,350,0.0,3.0,92,0.00,,,0.00,0,weatherlink.com 1.10,2013-01-08 09:47:00,
2013-01-08 05:02:00,64.8,63.0,30.11,North,355,0.0,2.0,92,0.00,,,0.00,0,weatherlink.com 1.10,2013-01-08 10:02:00,
2013-01-08 05:17:00,64.7,63.0,30.12,North,355,0.0,1.0,93,0.00,,,0.00,0,weatherlink.com 1.10,2013-01-08 10:17:00,
2013-01-08 05:32:00,64.5,63.0,30.12,North,355,0.0,1.0,93,0.00,,,0.00,0,weatherlink.com 1.10,2013-01-08 10:32:00,
2013-01-08 05:47:00,64.6,63.0,30.13,North,355,0.0,0.0,93,0.00,,,0.00,0,weatherlink.com 1.10,2013-01-08 10:47:00,
2013-01-08 06:02:00,64.7,63.0,30.14,North,355,0.0,0.0,93,0.00,,,0.00,0,weatherlink.com 1.10,2013-01-08 11:02:00,
2013-01-08 06:17:00,64.7,63.0,30.14,North,360,1.0,1.0,93,0.00,,,0.00,0,weatherlink.com 1.10,2013-01-08 11:17:00,
2013-01-08 06:32:00,64.7,63.0,30.14,North,360,0.0,2.0,93,0.00,,,0.00,0,weatherlink.com 1.10,2013-01-08 11:32:00,
2013-01-08 06:47:00,64.6,63.0,30.14,North,360,1.0,2.0,93,0.00,,,0.00,0,weatherlink.com 1.10,2013-01-08 11:47:00,
2013-01-08 07:02:00,64.9,63.0,30.14,North,349,0.0,4.0,93,0.00,,,0.00,0,weatherlink.com 1.10,2013-01-08 12:02:00,
2013-01-08 07:17:00,65.1,63.0,30.15,NNE,13,0.0,4.0,93,0.00,,,0.00,0,weatherlink.com 1.10,2013-01-08 12:17:00,
2013-01-08 07:32:00,65.1,63.0,30.16,NNE,13,0.0,3.0,94,0.00,,,0.00,5,weatherlink.com 1.10,2013-01-08 12:32:00,
2013-01-08 07:47:00,65.2,63.0,30.17,NNE,13,0.0,0.0,93,0.00,,,0.00,11,weatherlink.com 1.10,2013-01-08 12:47:00,
2013-01-08 08:02:00,65.2,63.0,30.18,North,11,0.0,0.0,93,0.00,,,0.00,18,weatherlink.com 1.10,2013-01-08 13:02:00,
2013-01-08 08:17:00,65.5,64.0,30.18,North,11,1.0,1.0,94,0.00,,,0.00,83,weatherlink.com 1.10,2013-01-08 13:17:00,
2013-01-08 08:32:00,67.0,65.0,30.19,NNE,13,0.0,2.0,94,0.00,,,0.00,190,weatherlink.com 1.10,2013-01-08 13:32:00,
2013-01-08 08:47:00,68.0,67.0,30.20,NE,46,1.0,4.0,95,0.00,,,0.00,93,weatherlink.com 1.10,2013-01-08 13:47:00,
2013-01-08 09:02:00,68.4,66.0,30.21,ENE,77,2.0,4.0,93,0.00,,,0.00,125,weatherlink.com 1.10,2013-01-08 14:02:00,
2013-01-08 09:17:00,69.0,67.0,30.21,NNE,24,0.0,4.0,93,0.00,,,0.00,144,weatherlink.com 1.10,2013-01-08 14:17:00,
2013-01-08 09:32:00,69.5,67.0,30.21,NNE,33,0.0,5.0,92,0.00,,,0.00,165,weatherlink.com 1.10,2013-01-08 14:32:00,
2013-01-08 09:47:00,70.2,68.0,30.22,ESE,102,1.0,4.0,92,0.00,,,0.00,241,weatherlink.com 1.10,2013-01-08 14:47:00,
2013-01-08 10:03:00,71.4,68.0,30.21,NNE,30,0.0,7.0,90,0.00,,,0.00,288,weatherlink.com 1.10,2013-01-08 15:03:00,
2013-01-08 10:18:00,74.1,69.0,30.21,SSE,148,2.0,6.0,85,0.00,,,0.00,499,weatherlink.com 1.10,2013-01-08 15:18:00,
2013-01-08 10:33:00,74.9,69.0,30.21,North,349,0.0,4.0,81,0.00,,,0.00,246,weatherlink.com 1.10,2013-01-08 15:33:00,
2013-01-08 10:48:00,74.9,69.0,30.20,East,90,0.0,6.0,81,0.00,,,0.00,225,weatherlink.com 1.10,2013-01-08 15:48:00,
2013-01-08 11:03:00,75.5,69.0,30.20,East,98,1.0,4.0,79,0.00,,,0.00,116,weatherlink.com 1.10,2013-01-08 16:03:00,
2013-01-08 11:18:00,75.8,69.0,30.20,East,94,1.0,2.0,78,0.00,,,0.00,290,weatherlink.com 1.10,2013-01-08 16:18:00,
2013-01-08 11:33:00,76.5,68.0,30.18,East,95,0.0,2.0,75,0.00,,,0.00,165,weatherlink.com 1.10,2013-01-08 16:33:00,
2013-01-08 11:48:00,76.6,69.0,30.18,East,94,0.0,3.0,76,0.00,,,0.00,803,weatherlink.com 1.10,2013-01-08 16:48:00,
2013-01-08 12:02:00,77.2,68.0,30.17,NE,51,1.0,3.0,73,0.00,,,0.00,171,weatherlink.com 1.10,2013-01-08 17:02:00,
2013-01-08 12:18:00,77.8,68.0,30.16,East,93,0.0,3.0,71,0.00,,,0.00,229,weatherlink.com 1.10,2013-01-08 17:18:00,
2013-01-08 12:33:00,78.7,67.0,30.16,NNE,24,3.0,4.0,68,0.00,,,0.00,197,weatherlink.com 1.10,2013-01-08 17:33:00,
2013-01-08 12:48:00,78.7,68.0,30.16,NNW,338,3.0,4.0,69,0.00,,,0.00,216,weatherlink.com 1.10,2013-01-08 17:48:00,
2013-01-08 13:03:00,78.8,67.0,30.15,NNW,336,0.0,3.0,68,0.00,,,0.00,239,weatherlink.com 1.10,2013-01-08 18:03:00,
2013-01-08 13:18:00,78.8,67.0,30.14,NNW,334,0.0,1.0,68,0.00,,,0.00,97,weatherlink.com 1.10,2013-01-08 18:18:00,
2013-01-08 13:33:00,78.3,68.0,30.14,East,81,1.0,3.0,70,0.00,,,0.00,167,weatherlink.com 1.10,2013-01-08 18:33:00,
2013-01-08 13:48:00,78.7,67.0,30.13,ESE,106,0.0,3.0,68,0.00,,,0.00,236,weatherlink.com 1.10,2013-01-08 18:48:00,
2013-01-08 14:03:00,78.8,68.0,30.13,ESE,107,1.0,2.0,69,0.00,,,0.00,160,weatherlink.com 1.10,2013-01-08 19:03:00,
2013-01-08 14:18:00,78.7,68.0,30.13,ESE,109,0.0,3.0,69,0.00,,,0.00,160,weatherlink.com 1.10,2013-01-08 19:18:00,
2013-01-08 14:33:00,78.7,67.0,30.13,SSE,160,0.0,5.0,68,0.00,,,0.00,186,weatherlink.com 1.10,2013-01-08 19:33:00,
2013-01-08 14:48:00,79.0,68.0,30.13,ESE,113,0.0,4.0,68,0.00,,,0.00,258,weatherlink.com 1.10,2013-01-08 19:48:00,
2013-01-08 15:03:00,79.4,68.0,30.13,ESE,106,0.0,3.0,68,0.00,,,0.00,167,weatherlink.com 1.10,2013-01-08 20:03:00,
2013-01-08 15:18:00,79.1,68.0,30.12,East,84,0.0,2.0,68,0.00,,,0.00,130,weatherlink.com 1.10,2013-01-08 20:18:00,
2013-01-08 15:33:00,78.8,68.0,30.13,ESE,109,2.0,5.0,69,0.00,,,0.00,105,weatherlink.com 1.10,2013-01-08 20:33:00,
2013-01-08 15:48:00,78.5,68.0,30.13,East,84,0.0,6.0,70,0.00,,,0.00,100,weatherlink.com 1.10,2013-01-08 20:48:00,
2013-01-08 16:03:00,78.4,68.0,30.13,SSE,150,0.0,4.0,71,0.00,,,0.00,104,weatherlink.com 1.10,2013-01-08 21:03:00,
2013-01-08 16:18:00,78.2,68.0,30.13,SSE,153,0.0,3.0,71,0.00,,,0.00,76,weatherlink.com 1.10,2013-01-08 21:18:00,
2013-01-08 16:33:00,77.8,68.0,30.13,East,99,1.0,4.0,72,0.00,,,0.00,60,weatherlink.com 1.10,2013-01-08 21:33:00,
2013-01-08 16:48:00,77.5,68.0,30.13,ESE,109,0.0,5.0,72,0.00,,,0.00,51,weatherlink.com 1.10,2013-01-08 21:48:00,
2013-01-08 17:18:00,76.8,68.0,30.14,East,81,0.0,3.0,74,0.00,,,0.00,16,weatherlink.com 1.10,2013-01-08 22:18:00,
2013-01-08 17:33:00,76.4,68.0,30.14,East,83,0.0,6.0,76,0.00,,,0.00,7,weatherlink.com 1.10,2013-01-08 22:33:00,
2013-01-08 17:48:00,76.0,68.0,30.14,East,98,0.0,4.0,77,0.00,,,0.00,0,weatherlink.com 1.10,2013-01-08 22:48:00,
2013-01-08 18:03:00,75.7,68.0,30.15,ESE,114,0.0,5.0,78,0.00,,,0.00,0,weatherlink.com 1.10,2013-01-08 23:03:00,
2013-01-08 18:18:00,75.3,68.0,30.15,East,97,0.0,2.0,78,0.00,,,0.00,0,weatherlink.com 1.10,2013-01-08 23:18:00,
2013-01-08 18:33:00,75.0,68.0,30.16,East,101,0.0,6.0,79,0.00,,,0.00,0,weatherlink.com 1.10,2013-01-08 23:33:00,
2013-01-08 18:48:00,74.8,68.0,30.16,East,94,0.0,2.0,79,0.00,,,0.00,0,weatherlink.com 1.10,2013-01-08 23:48:00,
2013-01-08 19:03:00,74.5,68.0,30.16,East,92,0.0,5.0,80,0.00,,,0.00,0,weatherlink.com 1.10,2013-01-09 00:03:00,
2013-01-08 19:18:00,74.2,68.0,30.16,SSE,148,0.0,5.0,81,0.00,,,0.00,0,weatherlink.com 1.10,2013-01-09 00:18:00,
2013-01-08 19:33:00,73.3,68.0,30.16,East,79,0.0,3.0,83,0.00,,,0.00,0,weatherlink.com 1.10,2013-01-09 00:33:00,
2013-01-08 19:48:00,72.6,68.0,30.16,East,89,1.0,2.0,85,0.00,,,0.00,0,weatherlink.com 1.10,2013-01-09 00:48:00,
2013-01-08 20:03:00,72.0,68.0,30.16,East,82,2.0,3.0,86,0.00,,,0.00,0,weatherlink.com 1.10,2013-01-09 01:03:00,
2013-01-08 20:33:00,71.5,68.0,30.16,East,84,0.0,2.0,88,0.00,,,0.00,0,weatherlink.com 1.10,2013-01-09 01:33:00,
2013-01-08 20:48:00,71.4,68.0,30.17,East,88,0.0,2.0,88,0.00,,,0.00,0,weatherlink.com 1.10,2013-01-09 01:48:00,
2013-01-08 21:03:00,71.3,68.0,30.16,East,89,0.0,2.0,88,0.00,,,0.00,0,weatherlink.com 1.10,2013-01-09 02:03:00,
2013-01-08 21:18:00,71.1,68.0,30.16,ESE,107,0.0,2.0,89,0.00,,,0.00,0,weatherlink.com 1.10,2013-01-09 02:18:00,
2013-01-08 21:33:00,70.8,68.0,30.17,ESE,105,0.0,3.0,89,0.00,,,0.00,0,weatherlink.com 1.10,2013-01-09 02:33:00,
2013-01-08 21:48:00,70.6,68.0,30.17,ESE,105,0.0,3.0,90,0.00,,,0.00,0,weatherlink.com 1.10,2013-01-09 02:48:00,
2013-01-08 22:03:00,70.3,67.0,30.18,ESE,105,0.0,1.0,90,0.00,,,0.00,0,weatherlink.com 1.10,2013-01-09 03:03:00,
2013-01-08 22:18:00,70.0,67.0,30.18,ESE,105,0.0,1.0,90,0.00,,,0.00,0,weatherlink.com 1.10,2013-01-09 03:18:00,
2013-01-08 22:33:00,69.7,67.0,30.18,ESE,105,0.0,1.0,90,0.00,,,0.00,0,weatherlink.com 1.10,2013-01-09 03:33:00,
2013-01-08 22:48:00,69.4,67.0,30.19,ESE,105,0.0,1.0,91,0.00,,,0.00,0,weatherlink.com 1.10,2013-01-09 03:48:00,
2013-01-08 23:03:00,69.3,67.0,30.19,ESE,105,0.0,1.0,91,0.00,,,0.00,0,weatherlink.com 1.10,2013-01-09 04:03:00,
2013-01-08 23:18:00,69.4,67.0,30.19,ESE,105,0.0,1.0,92,0.00,,,0.00,0,weatherlink.com 1.10,2013-01-09 04:18:00,
2013-01-08 23:33:00,69.4,67.0,30.19,ESE,105,0.0,2.0,92,0.00,,,0.00,0,weatherlink.com 1.10,2013-01-09 04:33:00,
2013-01-08 23:48:00,69.1,67.0,30.19,ESE,105,0.0,0.0,92,0.00,,,0.00,0,weatherlink.com 1.10,2013-01-09 04:48:00,